Time;durP1;ratioP1;P1;durP2;ratioP2;P2;SDS_P1;SDS_P2;PMS_P1;PMS_P2;Temp;Humidity;BMP_temperature;BMP_pressure;BME280_temperature;BME280_humidity;BME280_pressure;Samples;Min_cycle;Max_cycle;Signal;HPM_P1;HPM_P2
2024/01/12 00:02:22;;;;;;;5.57;5.07;;;;;;;;;;5036532;28;20205;-63
2024/01/12 00:04:49;;;;;;;6.07;5.45;;;;;;;;;;5037051;28;20507;-63
2024/01/12 00:07:17;;;;;;;5.63;5.03;;;;;;;;;;5036704;28;20209;-63
2024/01/12 00:09:44;;;;;;;5.95;5.32;;;;;;;;;;5037000;28;20540;-63
2024/01/12 00:12:12;;;;;;;6.13;5.53;;;;;;;;;;5041021;28;20206;-64
2024/01/12 00:14:39;;;;;;;6.03;5.43;;;;;;;;;;5040381;28;20520;-63
2024/01/12 00:17:07;;;;;;;6.05;5.45;;;;;;;;;;5040337;28;20568;-63
2024/01/12 00:19:36;;;;;;;5.75;5.03;;;;;;;;;;5041184;28;20206;-63
2024/01/12 00:22:03;;;;;;;5.68;5.13;;;;;;;;;;5040638;28;20639;-63
2024/01/12 00:24:31;;;;;;;5.30;4.82;;;;;;;;;;5040454;28;20210;-63
2024/01/12 00:26:59;;;;;;;5.40;4.90;;;;;;;;;;5040541;28;20687;-63
2024/01/12 00:29:26;;;;;;;5.78;5.10;;;;;;;;;;5040648;28;20541;-63
2024/01/12 00:31:55;;;;;;;5.65;5.05;;;;;;;;;;5040148;28;20213;-63
2024/01/12 00:34:22;;;;;;;5.25;4.75;;;;;;;;;;5040456;28;20225;-63
2024/01/12 00:36:53;;;;;;;5.40;4.88;;;;;;;;;;5040416;28;20595;-63
2024/01/12 00:39:21;;;;;;;5.97;5.38;;;;;;;;;;5040330;28;20206;-63
2024/01/12 00:41:50;;;;;;;5.50;4.90;;;;;;;;;;5040117;28;20221;-63
2024/01/12 00:44:19;;;;;;;6.00;5.40;;;;;;;;;;5040086;28;20235;-63
2024/01/12 00:46:50;;;;;;;5.47;4.97;;;;;;;;;;5039997;28;20267;-63
2024/01/12 00:49:18;;;;;;;5.57;5.03;;;;;;;;;;5039967;28;20206;-63
2024/01/12 00:51:46;;;;;;;6.15;5.47;;;;;;;;;;5040165;28;20780;-63
2024/01/12 00:54:15;;;;;;;5.70;5.13;;;;;;;;;;5039950;28;20261;-63
2024/01/12 00:56:43;;;;;;;5.93;5.32;;;;;;;;;;5040058;28;20209;-63
2024/01/12 00:59:10;;;;;;;4.95;4.45;;;;;;;;;;5039900;28;20217;-63
2024/01/12 01:01:38;;;;;;;5.60;5.10;;;;;;;;;;5039346;28;20212;-63
2024/01/12 01:04:06;;;;;;;5.57;4.90;;;;;;;;;;5039843;28;20206;-63
2024/01/12 01:06:33;;;;;;;5.72;5.10;;;;;;;;;;5040181;28;20213;-63
2024/01/12 01:09:01;;;;;;;6.13;5.45;;;;;;;;;;5039989;28;20521;-63
2024/01/12 01:11:30;;;;;;;5.72;4.82;;;;;;;;;;5039898;28;20216;-63
2024/01/12 01:13:57;;;;;;;5.50;4.85;;;;;;;;;;5039804;28;20623;-63
2024/01/12 01:16:25;;;;;;;5.90;5.30;;;;;;;;;;5039464;28;20213;-63
2024/01/12 01:18:53;;;;;;;6.10;5.18;;;;;;;;;;5039968;28;20205;-63
2024/01/12 01:21:20;;;;;;;5.90;5.30;;;;;;;;;;5038977;28;20233;-63
2024/01/12 01:23:48;;;;;;;5.85;5.15;;;;;;;;;;5039313;28;20217;-63
2024/01/12 01:26:15;;;;;;;5.65;5.05;;;;;;;;;;5039878;28;20257;-63
2024/01/12 01:28:44;;;;;;;6.10;5.47;;;;;;;;;;5039606;28;20206;-63
2024/01/12 01:31:12;;;;;;;5.50;4.97;;;;;;;;;;5039585;28;20217;-63
2024/01/12 01:33:39;;;;;;;5.40;4.90;;;;;;;;;;5039507;28;20228;-63
2024/01/12 01:36:07;;;;;;;5.80;5.20;;;;;;;;;;5039466;28;20205;-63
2024/01/12 01:38:35;;;;;;;6.30;5.68;;;;;;;;;;5039333;28;20205;-63
2024/01/12 01:41:02;;;;;;;5.80;4.68;;;;;;;;;;5039303;28;20206;-63
2024/01/12 01:43:30;;;;;;;5.95;5.35;;;;;;;;;;5039239;28;20220;-63
2024/01/12 01:45:59;;;;;;;6.30;5.60;;;;;;;;;;5039082;28;20202;-63
2024/01/12 01:48:27;;;;;;;6.00;5.32;;;;;;;;;;5039139;28;20228;-63
2024/01/12 01:50:55;;;;;;;6.18;5.35;;;;;;;;;;5038820;28;20206;-63
2024/01/12 01:53:23;;;;;;;5.85;5.25;;;;;;;;;;5038843;28;20217;-63
2024/01/12 01:55:50;;;;;;;6.03;5.43;;;;;;;;;;5038672;28;20295;-63
2024/01/12 01:58:18;;;;;;;6.00;5.40;;;;;;;;;;5039381;28;20301;-63
2024/01/12 02:00:46;;;;;;;6.22;5.63;;;;;;;;;;5039016;28;20468;-63
2024/01/12 02:03:16;;;;;;;7.07;5.90;;;;;;;;;;5038785;28;20206;-63
2024/01/12 02:05:44;;;;;;;5.82;5.30;;;;;;;;;;5038891;28;20205;-63
2024/01/12 02:08:12;;;;;;;6.05;5.45;;;;;;;;;;5038835;28;20205;-63
2024/01/12 02:10:39;;;;;;;6.68;5.40;;;;;;;;;;5038553;28;20216;-63
2024/01/12 02:13:07;;;;;;;6.03;5.43;;;;;;;;;;5038649;28;20206;-63
2024/01/12 02:15:35;;;;;;;6.07;5.45;;;;;;;;;;5038308;28;20225;-63
2024/01/12 02:18:02;;;;;;;5.78;5.18;;;;;;;;;;5038796;28;20616;-63
2024/01/12 02:20:31;;;;;;;6.75;6.07;;;;;;;;;;5038867;28;20212;-63
2024/01/12 02:23:00;;;;;;;6.38;5.75;;;;;;;;;;5038781;28;20257;-63
2024/01/12 02:25:27;;;;;;;6.45;5.75;;;;;;;;;;5038222;28;20213;-63
2024/01/12 02:27:56;;;;;;;6.32;5.72;;;;;;;;;;5038508;28;20271;-63
2024/01/12 02:30:23;;;;;;;6.95;5.63;;;;;;;;;;5038395;28;20205;-63
2024/01/12 02:32:51;;;;;;;6.25;5.65;;;;;;;;;;5037373;28;20205;-63
2024/01/12 02:35:18;;;;;;;6.47;5.78;;;;;;;;;;5037946;28;20233;-63
2024/01/12 02:37:46;;;;;;;6.78;5.97;;;;;;;;;;5038337;28;20255;-63
2024/01/12 02:40:15;;;;;;;6.82;5.75;;;;;;;;;;5037823;28;20209;-63
2024/01/12 02:42:43;;;;;;;7.18;6.20;;;;;;;;;;5037915;28;20212;-63
2024/01/12 02:45:11;;;;;;;6.18;5.50;;;;;;;;;;5037753;28;20216;-63
2024/01/12 02:47:38;;;;;;;6.63;5.72;;;;;;;;;;5037951;28;20213;-63
2024/01/12 02:50:06;;;;;;;6.30;5.70;;;;;;;;;;5037834;28;20248;-63
2024/01/12 02:52:35;;;;;;;6.50;5.47;;;;;;;;;;5038202;28;20213;-63
2024/01/12 02:55:03;;;;;;;6.38;5.78;;;;;;;;;;5038044;28;20230;-63
2024/01/12 02:57:32;;;;;;;5.93;5.32;;;;;;;;;;5037521;28;20228;-63
2024/01/12 03:00:00;;;;;;;6.20;5.60;;;;;;;;;;5037872;28;20599;-63
2024/01/12 03:02:27;;;;;;;6.30;5.70;;;;;;;;;;5037935;28;20213;-63
2024/01/12 03:04:55;;;;;;;6.35;5.55;;;;;;;;;;5037685;28;20206;-63
2024/01/12 03:07:22;;;;;;;6.80;6.10;;;;;;;;;;5037774;28;20232;-63
2024/01/12 03:09:50;;;;;;;6.97;6.20;;;;;;;;;;5037464;28;20201;-63
2024/01/12 03:12:18;;;;;;;7.00;5.97;;;;;;;;;;5037702;28;20528;-63
2024/01/12 03:14:47;;;;;;;6.30;5.60;;;;;;;;;;5037350;28;20221;-63
2024/01/12 03:17:14;;;;;;;6.53;5.75;;;;;;;;;;5037574;28;20206;-63
2024/01/12 03:19:42;;;;;;;6.13;5.53;;;;;;;;;;5037471;28;20210;-63
2024/01/12 03:22:10;;;;;;;7.00;5.95;;;;;;;;;;5037125;28;20624;-63
2024/01/12 03:24:37;;;;;;;6.70;6.00;;;;;;;;;;5037247;28;20206;-63
2024/01/12 03:27:05;;;;;;;6.55;5.65;;;;;;;;;;5037273;28;20592;-63
2024/01/12 03:29:32;;;;;;;6.10;5.47;;;;;;;;;;5037704;28;20228;-63
2024/01/12 03:32:01;;;;;;;6.07;5.47;;;;;;;;;;5037019;28;20214;-63
2024/01/12 03:34:29;;;;;;;7.00;5.93;;;;;;;;;;5037587;28;20285;-63
2024/01/12 03:36:57;;;;;;;6.70;5.53;;;;;;;;;;5037257;28;20217;-63
2024/01/12 03:39:24;;;;;;;6.38;5.72;;;;;;;;;;5037323;28;20255;-63
2024/01/12 03:41:52;;;;;;;6.95;6.25;;;;;;;;;;5036450;28;20209;-63
2024/01/12 03:44:19;;;;;;;7.10;5.90;;;;;;;;;;5036825;28;20226;-63
2024/01/12 03:46:47;;;;;;;6.32;5.55;;;;;;;;;;5036407;28;20205;-63
2024/01/12 03:49:16;;;;;;;7.70;6.38;;;;;;;;;;5036466;28;20587;-63
2024/01/12 03:51:44;;;;;;;6.07;5.47;;;;;;;;;;5036805;28;20213;-63
2024/01/12 03:54:12;;;;;;;7.55;6.40;;;;;;;;;;5036462;28;20267;-63
2024/01/12 03:56:39;;;;;;;7.53;6.00;;;;;;;;;;5036185;28;20237;-63
2024/01/12 03:59:07;;;;;;;6.82;6.07;;;;;;;;;;5036978;28;20206;-64
2024/01/12 04:01:34;;;;;;;6.82;6.13;;;;;;;;;;5036643;28;20340;-63
2024/01/12 04:04:02;;;;;;;6.53;5.78;;;;;;;;;;5036548;28;20669;-63
2024/01/12 04:06:31;;;;;;;6.70;6.00;;;;;;;;;;5036282;28;20300;-63
2024/01/12 04:08:59;;;;;;;6.28;5.68;;;;;;;;;;5036471;28;20484;-63
2024/01/12 04:11:27;;;;;;;7.20;5.93;;;;;;;;;;5036612;28;20607;-63
2024/01/12 04:13:55;;;;;;;7.32;6.55;;;;;;;;;;5036450;28;20248;-63
2024/01/12 04:16:22;;;;;;;7.50;6.70;;;;;;;;;;5036318;28;20256;-63
2024/01/12 04:18:50;;;;;;;6.93;6.05;;;;;;;;;;5036156;28;20213;-63
2024/01/12 04:21:17;;;;;;;6.82;6.13;;;;;;;;;;5036501;28;20206;-63
2024/01/12 04:23:47;;;;;;;7.07;5.82;;;;;;;;;;5036217;28;20489;-63
2024/01/12 04:26:14;;;;;;;6.80;6.10;;;;;;;;;;5036278;28;20220;-63
2024/01/12 04:28:41;;;;;;;6.95;6.25;;;;;;;;;;5036984;28;20206;-63
2024/01/12 04:31:09;;;;;;;7.05;6.35;;;;;;;;;;5036595;28;20217;-63
2024/01/12 04:33:37;;;;;;;6.82;6.13;;;;;;;;;;5036229;28;20248;-63
2024/01/12 04:36:07;;;;;;;6.78;6.07;;;;;;;;;;5036192;28;20229;-63
2024/01/12 04:38:34;;;;;;;7.03;6.18;;;;;;;;;;5036206;28;20293;-63
2024/01/12 04:41:03;;;;;;;6.65;5.80;;;;;;;;;;5036126;28;20408;-63
2024/01/12 04:43:31;;;;;;;7.10;6.40;;;;;;;;;;5036298;28;20205;-63
2024/01/12 04:45:59;;;;;;;8.35;6.50;;;;;;;;;;5036662;28;20202;-63
2024/01/12 04:48:26;;;;;;;7.10;6.18;;;;;;;;;;5036646;28;20213;-63
2024/01/12 04:50:54;;;;;;;6.93;5.57;;;;;;;;;;5036274;28;20271;-63
2024/01/12 04:53:21;;;;;;;6.88;6.15;;;;;;;;;;5035827;28;20336;-64
2024/01/12 04:55:49;;;;;;;6.50;5.72;;;;;;;;;;5036980;28;20311;-63
2024/01/12 04:58:18;;;;;;;7.80;6.50;;;;;;;;;;5040014;28;20496;-63
2024/01/12 05:00:46;;;;;;;7.57;6.10;;;;;;;;;;5039839;28;20205;-63
2024/01/12 05:03:13;;;;;;;7.28;6.38;;;;;;;;;;5039442;28;20210;-63
2024/01/12 05:05:40;;;;;;;7.28;6.43;;;;;;;;;;5039589;28;20458;-63
2024/01/12 05:08:08;;;;;;;7.07;6.05;;;;;;;;;;5039380;28;20206;-63
2024/01/12 05:10:35;;;;;;;7.13;6.10;;;;;;;;;;5039509;28;20212;-63
2024/01/12 05:13:03;;;;;;;6.88;6.18;;;;;;;;;;5039200;28;20491;-63
2024/01/12 05:15:32;;;;;;;7.57;5.95;;;;;;;;;;5039123;28;20533;-63
2024/01/12 05:17:59;;;;;;;7.53;6.05;;;;;;;;;;5039195;28;20214;-63
2024/01/12 05:20:27;;;;;;;7.40;6.53;;;;;;;;;;5038756;28;20576;-63
2024/01/12 05:22:54;;;;;;;8.02;7.15;;;;;;;;;;5038398;28;20291;-63
2024/01/12 05:25:20;;;;;;;6.70;6.00;;;;;;;;;;5038803;28;20202;-63
2024/01/12 05:27:48;;;;;;;6.72;5.80;;;;;;;;;;5038198;28;20758;-63
2024/01/12 05:30:16;;;;;;;7.38;6.53;;;;;;;;;;5037911;28;20223;-63
2024/01/12 05:32:45;;;;;;;7.47;6.68;;;;;;;;;;5038352;28;20206;-63
2024/01/12 05:35:12;;;;;;;6.70;5.80;;;;;;;;;;5038454;28;20236;-63
2024/01/12 05:37:39;;;;;;;6.32;5.50;;;;;;;;;;5038034;28;20212;-63
2024/01/12 05:40:08;;;;;;;6.40;5.80;;;;;;;;;;5038108;28;20209;-63
2024/01/12 05:42:35;;;;;;;6.57;5.78;;;;;;;;;;5037752;28;20205;-63
2024/01/12 05:45:03;;;;;;;7.30;6.50;;;;;;;;;;5038404;28;20572;-63
2024/01/12 05:47:30;;;;;;;6.35;5.68;;;;;;;;;;5037788;28;20198;-63
2024/01/12 05:49:59;;;;;;;6.53;5.93;;;;;;;;;;5037630;28;20241;-63
2024/01/12 05:52:26;;;;;;;7.85;6.30;;;;;;;;;;5037911;28;20623;-63
2024/01/12 05:54:55;;;;;;;6.50;5.90;;;;;;;;;;5038004;28;20241;-63
2024/01/12 05:57:22;;;;;;;7.22;5.90;;;;;;;;;;5037480;28;20528;-63
2024/01/12 05:59:51;;;;;;;6.90;5.40;;;;;;;;;;5037625;28;20204;-63
2024/01/12 06:02:18;;;;;;;6.15;5.15;;;;;;;;;;5037496;28;20259;-63
2024/01/12 06:04:45;;;;;;;6.43;5.70;;;;;;;;;;5037787;28;20201;-63
2024/01/12 06:07:15;;;;;;;6.00;5.13;;;;;;;;;;5036171;28;20202;-63
2024/01/12 06:09:42;;;;;;;5.93;5.30;;;;;;;;;;5037304;28;20401;-63
2024/01/12 06:12:11;;;;;;;6.30;5.15;;;;;;;;;;5036856;28;20645;-63
2024/01/12 06:14:38;;;;;;;6.38;5.60;;;;;;;;;;5036411;28;20843;-63
2024/01/12 06:17:06;;;;;;;6.10;5.45;;;;;;;;;;5036704;28;20622;-63
2024/01/12 06:19:33;;;;;;;5.90;5.07;;;;;;;;;;5036667;28;20209;-63
2024/01/12 06:22:00;;;;;;;5.95;5.35;;;;;;;;;;5037180;28;20620;-63
2024/01/12 06:24:29;;;;;;;5.65;5.07;;;;;;;;;;5037212;28;20485;-63
2024/01/12 06:26:57;;;;;;;6.78;5.28;;;;;;;;;;5036718;28;20208;-63
2024/01/12 06:29:24;;;;;;;5.57;4.60;;;;;;;;;;5036112;28;20198;-63
2024/01/12 06:31:51;;;;;;;5.80;4.63;;;;;;;;;;5036061;28;20209;-63
2024/01/12 06:34:19;;;;;;;6.95;5.07;;;;;;;;;;5036158;28;20197;-63
2024/01/12 06:36:46;;;;;;;5.32;4.60;;;;;;;;;;5036110;28;20232;-63
2024/01/12 06:39:16;;;;;;;7.30;4.85;;;;;;;;;;5036791;28;20239;-64
2024/01/12 06:41:46;;;;;;;5.00;4.50;;;;;;;;;;5035190;28;20677;-64
2024/01/12 06:44:14;;;;;;;4.90;4.40;;;;;;;;;;5036278;28;20603;-64
2024/01/12 06:46:43;;;;;;;4.18;3.78;;;;;;;;;;5035989;28;20206;-63
2024/01/12 06:49:10;;;;;;;5.15;4.47;;;;;;;;;;5035006;28;20209;-63
2024/01/12 06:51:38;;;;;;;4.60;4.20;;;;;;;;;;5036060;28;20591;-63
2024/01/12 06:54:05;;;;;;;5.15;4.65;;;;;;;;;;5035980;28;20845;-63
2024/01/12 06:56:37;;;;;;;5.30;4.25;;;;;;;;;;5035749;28;20240;-63
2024/01/12 06:59:05;;;;;;;4.55;3.95;;;;;;;;;;5035968;28;20557;-63
2024/01/12 07:01:33;;;;;;;4.82;3.95;;;;;;;;;;5035914;28;20210;-63
2024/01/12 07:04:01;;;;;;;4.80;3.92;;;;;;;;;;5035789;28;20705;-63
2024/01/12 07:06:28;;;;;;;4.75;3.60;;;;;;;;;;5035786;28;20193;-63
2024/01/12 07:08:55;;;;;;;4.78;4.05;;;;;;;;;;5035463;28;20232;-63
2024/01/12 07:11:24;;;;;;;4.57;3.75;;;;;;;;;;5036066;28;20216;-63
2024/01/12 07:13:51;;;;;;;4.28;3.47;;;;;;;;;;5035841;28;20215;-63
2024/01/12 07:16:20;;;;;;;5.03;3.72;;;;;;;;;;5035861;28;20229;-63
2024/01/12 07:18:47;;;;;;;4.00;3.40;;;;;;;;;;5035537;28;20206;-63
2024/01/12 07:21:15;;;;;;;4.03;3.65;;;;;;;;;;5035209;28;20205;-63
2024/01/12 07:23:42;;;;;;;4.20;3.17;;;;;;;;;;5036205;28;20202;-63
2024/01/12 07:26:10;;;;;;;3.83;3.33;;;;;;;;;;5036216;28;20655;-63
2024/01/12 07:28:37;;;;;;;3.92;3.25;;;;;;;;;;5035927;28;20307;-63
2024/01/12 07:31:05;;;;;;;4.13;3.70;;;;;;;;;;5035390;28;20220;-63
2024/01/12 07:33:34;;;;;;;3.83;3.42;;;;;;;;;;5035969;28;20729;-63
2024/01/12 07:36:01;;;;;;;4.00;3.60;;;;;;;;;;5035272;28;20228;-63
2024/01/12 07:38:29;;;;;;;3.28;2.97;;;;;;;;;;5035649;28;20212;-63
2024/01/12 07:40:56;;;;;;;3.55;3.22;;;;;;;;;;5035429;28;20263;-63
2024/01/12 07:43:25;;;;;;;4.05;3.33;;;;;;;;;;5035535;28;20232;-63
2024/01/12 07:45:52;;;;;;;3.10;2.80;;;;;;;;;;5035682;28;20202;-63
2024/01/12 07:48:19;;;;;;;3.70;3.28;;;;;;;;;;5035842;28;20205;-63
2024/01/12 07:50:48;;;;;;;3.20;2.90;;;;;;;;;;5035430;28;20205;-64
2024/01/12 07:53:16;;;;;;;2.90;2.60;;;;;;;;;;5036143;28;20206;-63
2024/01/12 07:55:43;;;;;;;3.08;2.80;;;;;;;;;;5035248;28;20482;-63
2024/01/12 07:58:11;;;;;;;3.35;2.90;;;;;;;;;;5035740;28;20724;-63
2024/01/12 08:00:38;;;;;;;3.13;2.80;;;;;;;;;;5035044;28;20206;-63
2024/01/12 08:03:06;;;;;;;3.45;2.80;;;;;;;;;;5035579;28;20209;-63
2024/01/12 08:05:33;;;;;;;3.35;3.05;;;;;;;;;;5035678;28;20588;-63
2024/01/12 08:08:02;;;;;;;3.40;3.08;;;;;;;;;;5035623;28;20206;-63
2024/01/12 08:10:30;;;;;;;3.38;3.00;;;;;;;;;;5035083;28;20594;-63
2024/01/12 08:12:57;;;;;;;3.15;2.88;;;;;;;;;;5035332;28;20646;-63
2024/01/12 08:15:24;;;;;;;2.97;2.67;;;;;;;;;;5035719;28;20224;-63
2024/01/12 08:17:53;;;;;;;2.63;2.42;;;;;;;;;;5035272;28;20235;-63
2024/01/12 08:20:20;;;;;;;3.53;3.10;;;;;;;;;;5034862;28;20218;-63
2024/01/12 08:22:48;;;;;;;3.08;2.75;;;;;;;;;;5035281;28;20653;-63
2024/01/12 08:25:17;;;;;;;3.72;3.08;;;;;;;;;;5035700;28;20252;-63
2024/01/12 08:27:45;;;;;;;3.75;2.63;;;;;;;;;;5034744;28;20316;-63
2024/01/12 08:30:13;;;;;;;3.20;2.90;;;;;;;;;;5035477;28;20209;-63
2024/01/12 08:32:40;;;;;;;3.08;2.78;;;;;;;;;;5039706;28;20215;-63
2024/01/12 08:35:08;;;;;;;2.83;2.53;;;;;;;;;;5039193;28;20300;-63
2024/01/12 08:37:35;;;;;;;2.70;2.50;;;;;;;;;;5038308;28;20284;-63
2024/01/12 08:40:03;;;;;;;2.97;2.67;;;;;;;;;;5038882;28;20216;-63
2024/01/12 08:42:32;;;;;;;3.30;3.00;;;;;;;;;;5038705;28;20268;-63
2024/01/12 08:44:59;;;;;;;2.92;2.72;;;;;;;;;;5039445;28;20201;-63
2024/01/12 08:47:28;;;;;;;3.65;2.78;;;;;;;;;;5038965;28;20225;-63
2024/01/12 08:49:58;;;;;;;3.08;2.70;;;;;;;;;;5038796;28;20212;-63
2024/01/12 08:52:25;;;;;;;2.85;2.42;;;;;;;;;;5038846;28;20233;-63
2024/01/12 08:54:53;;;;;;;3.00;2.70;;;;;;;;;;5038284;28;20198;-63
2024/01/12 08:57:20;;;;;;;2.78;2.50;;;;;;;;;;5038589;28;20240;-63
2024/01/12 08:59:49;;;;;;;4.18;2.95;;;;;;;;;;5038559;28;20209;-63
2024/01/12 09:02:16;;;;;;;2.60;2.40;;;;;;;;;;5038422;28;20212;-63
2024/01/12 09:04:43;;;;;;;3.80;2.83;;;;;;;;;;5038971;28;20209;-63
2024/01/12 09:07:11;;;;;;;3.38;2.90;;;;;;;;;;5038230;28;20194;-63
2024/01/12 09:09:39;;;;;;;2.60;2.40;;;;;;;;;;5037600;28;20491;-63
2024/01/12 09:12:06;;;;;;;3.00;2.70;;;;;;;;;;5038226;28;20568;-63
2024/01/12 09:14:36;;;;;;;2.80;2.60;;;;;;;;;;5036614;28;20201;-63
2024/01/12 09:17:06;;;;;;;3.05;2.60;;;;;;;;;;5012938;28;20344;-63
2024/01/12 09:19:34;;;;;;;3.15;2.78;;;;;;;;;;5018591;28;20217;-63
2024/01/12 09:22:03;;;;;;;2.60;2.40;;;;;;;;;;5018447;28;20326;-63
2024/01/12 09:24:30;;;;;;;2.60;2.40;;;;;;;;;;5018721;28;20198;-63
2024/01/12 09:26:57;;;;;;;3.40;2.72;;;;;;;;;;5018272;28;20213;-63
2024/01/12 09:29:25;;;;;;;2.80;2.60;;;;;;;;;;5018677;28;20305;-63
2024/01/12 09:31:52;;;;;;;2.70;2.50;;;;;;;;;;5018400;28;20574;-63
2024/01/12 09:34:21;;;;;;;4.00;2.53;;;;;;;;;;5017929;28;20205;-63
2024/01/12 09:36:49;;;;;;;2.67;2.47;;;;;;;;;;5018069;28;20223;-63
2024/01/12 09:39:17;;;;;;;3.05;2.50;;;;;;;;;;5018182;28;20198;-63
2024/01/12 09:41:49;;;;;;;2.45;2.25;;;;;;;;;;5017732;28;20211;-63
2024/01/12 09:44:19;;;;;;;2.60;2.40;;;;;;;;;;5017930;28;20214;-63
2024/01/12 09:46:51;;;;;;;2.60;2.22;;;;;;;;;;5018262;28;20212;-63
2024/01/12 09:49:19;;;;;;;2.72;2.53;;;;;;;;;;5017816;28;20211;-63
2024/01/12 09:51:48;;;;;;;2.67;2.47;;;;;;;;;;5017471;28;20206;-63
2024/01/12 09:54:16;;;;;;;2.55;2.35;;;;;;;;;;5017432;28;20210;-63
2024/01/12 09:56:44;;;;;;;2.50;2.30;;;;;;;;;;5017426;28;20222;-63
2024/01/12 09:59:12;;;;;;;2.50;2.30;;;;;;;;;;5017846;28;20301;-63
2024/01/12 10:01:40;;;;;;;2.50;2.30;;;;;;;;;;5017380;28;20225;-63
2024/01/12 10:04:08;;;;;;;2.42;2.20;;;;;;;;;;5017255;28;20210;-63
2024/01/12 10:06:36;;;;;;;2.40;2.20;;;;;;;;;;5018058;28;20543;-63
2024/01/12 10:09:04;;;;;;;2.40;2.20;;;;;;;;;;5017423;28;20594;-63
2024/01/12 10:11:32;;;;;;;2.47;2.28;;;;;;;;;;5017819;28;20497;-63
2024/01/12 10:13:59;;;;;;;2.55;2.20;;;;;;;;;;5017710;28;20261;-63
2024/01/12 10:16:29;;;;;;;2.65;2.45;;;;;;;;;;5016203;28;20217;-63
2024/01/12 10:18:57;;;;;;;2.20;2.00;;;;;;;;;;5017707;28;20635;-63
2024/01/12 10:21:25;;;;;;;2.42;2.22;;;;;;;;;;5016591;28;20246;-63
2024/01/12 10:23:53;;;;;;;2.15;1.95;;;;;;;;;;5017057;28;20245;-63
2024/01/12 10:26:21;;;;;;;3.28;2.42;;;;;;;;;;5016656;28;20203;-63
2024/01/12 10:28:50;;;;;;;2.22;2.03;;;;;;;;;;5017028;28;20212;-63
2024/01/12 10:31:17;;;;;;;2.28;2.08;;;;;;;;;;5016028;28;20213;-63
2024/01/12 10:33:45;;;;;;;2.40;2.20;;;;;;;;;;5015852;28;20305;-63
2024/01/12 10:36:14;;;;;;;2.63;2.13;;;;;;;;;;5015876;28;20206;-63
2024/01/12 10:38:42;;;;;;;2.28;2.00;;;;;;;;;;5016002;28;20233;-63
2024/01/12 10:41:12;;;;;;;2.45;2.25;;;;;;;;;;5015670;28;20207;-63
2024/01/12 10:43:42;;;;;;;2.33;2.13;;;;;;;;;;5016189;28;20295;-63
2024/01/12 10:46:11;;;;;;;2.30;2.10;;;;;;;;;;5015635;28;20214;-63
2024/01/12 10:48:42;;;;;;;2.28;2.08;;;;;;;;;;5015615;28;20218;-63
2024/01/12 10:51:11;;;;;;;2.53;2.20;;;;;;;;;;5016484;28;20210;-63
2024/01/12 10:53:38;;;;;;;2.90;2.55;;;;;;;;;;5015807;28;20217;-63
2024/01/12 10:56:07;;;;;;;2.38;2.17;;;;;;;;;;5015499;28;20238;-63
2024/01/12 10:58:34;;;;;;;2.30;2.10;;;;;;;;;;5014948;28;20230;-63
2024/01/12 11:01:03;;;;;;;2.40;2.10;;;;;;;;;;5016390;28;20217;-63
2024/01/12 11:03:32;;;;;;;2.45;2.25;;;;;;;;;;5015290;28;20206;-63
2024/01/12 11:06:01;;;;;;;2.03;1.83;;;;;;;;;;5015706;28;20206;-63
2024/01/12 11:08:29;;;;;;;2.20;2.00;;;;;;;;;;5016465;28;20206;-63
2024/01/12 11:10:58;;;;;;;2.80;2.00;;;;;;;;;;5015617;28;20198;-63
2024/01/12 11:13:26;;;;;;;3.95;2.15;;;;;;;;;;5016131;28;20577;-63
2024/01/12 11:15:54;;;;;;;2.20;2.00;;;;;;;;;;5015571;28;20528;-63
2024/01/12 11:18:25;;;;;;;2.38;1.90;;;;;;;;;;5015312;28;20222;-63
2024/01/12 11:21:02;;;;;;;2.65;2.13;;;;;;;;;;5015499;28;20206;-63
2024/01/12 11:23:29;;;;;;;2.55;2.17;;;;;;;;;;5015868;28;20306;-63
2024/01/12 11:25:57;;;;;;;2.38;1.95;;;;;;;;;;5015652;28;20214;-63
2024/01/12 11:28:24;;;;;;;3.72;1.98;;;;;;;;;;5015581;28;20212;-63
2024/01/12 11:30:52;;;;;;;2.22;2.03;;;;;;;;;;5015638;28;20233;-63
2024/01/12 11:33:20;;;;;;;4.07;2.30;;;;;;;;;;5014598;28;20206;-63
2024/01/12 11:35:51;;;;;;;2.40;1.90;;;;;;;;;;5014205;28;20206;-63
2024/01/12 11:38:19;;;;;;;4.30;2.20;;;;;;;;;;5015102;28;20230;-63
2024/01/12 11:40:49;;;;;;;2.90;2.28;;;;;;;;;;5015902;28;20214;-63
2024/01/12 11:43:17;;;;;;;2.20;2.00;;;;;;;;;;5014841;28;20213;-63
2024/01/12 11:45:45;;;;;;;3.83;2.13;;;;;;;;;;5015407;28;20203;-64
2024/01/12 11:48:15;;;;;;;2.53;2.05;;;;;;;;;;5014315;28;20214;-64
2024/01/12 11:50:43;;;;;;;2.40;2.10;;;;;;;;;;5014477;28;20224;-63
2024/01/12 11:53:12;;;;;;;2.40;1.92;;;;;;;;;;5014613;28;20228;-63
2024/01/12 11:55:40;;;;;;;2.58;2.00;;;;;;;;;;5014887;28;20212;-63
2024/01/12 11:58:08;;;;;;;1.88;1.77;;;;;;;;;;5014737;28;20222;-63
2024/01/12 12:00:35;;;;;;;2.95;2.05;;;;;;;;;;5014821;28;20238;-63
2024/01/12 12:03:03;;;;;;;1.90;1.65;;;;;;;;;;5015739;28;20220;-63
2024/01/12 12:05:30;;;;;;;2.30;1.83;;;;;;;;;;5016695;28;20206;-63
2024/01/12 12:07:58;;;;;;;2.45;1.63;;;;;;;;;;5018740;28;20212;-63
2024/01/12 12:10:27;;;;;;;2.13;1.92;;;;;;;;;;5018697;28;20208;-63
2024/01/12 12:12:54;;;;;;;2.17;1.90;;;;;;;;;;5018497;28;20272;-63
2024/01/12 12:15:21;;;;;;;2.03;1.80;;;;;;;;;;5018541;28;20340;-63
2024/01/12 12:17:49;;;;;;;2.10;1.92;;;;;;;;;;5018184;28;20226;-63
2024/01/12 12:20:17;;;;;;;3.05;1.75;;;;;;;;;;5019023;28;20232;-63
2024/01/12 12:22:45;;;;;;;2.17;1.80;;;;;;;;;;5018756;28;20519;-63
2024/01/12 12:25:12;;;;;;;2.40;2.10;;;;;;;;;;5018290;28;20631;-63
2024/01/12 12:27:42;;;;;;;2.33;2.00;;;;;;;;;;5018230;28;20255;-63
2024/01/12 12:30:10;;;;;;;1.83;1.73;;;;;;;;;;5018808;28;20206;-63
2024/01/12 12:32:39;;;;;;;2.50;1.98;;;;;;;;;;5018448;28;20210;-63
2024/01/12 12:35:13;;;;;;;2.40;2.00;;;;;;;;;;5018107;28;20504;-63
2024/01/12 12:37:40;;;;;;;1.85;1.65;;;;;;;;;;5018295;28;20241;-63
2024/01/12 12:40:09;;;;;;;1.70;1.60;;;;;;;;;;5017978;28;20198;-63
2024/01/12 12:42:37;;;;;;;2.88;1.48;;;;;;;;;;5018012;28;20206;-63
2024/01/12 12:45:06;;;;;;;2.17;1.88;;;;;;;;;;5017999;28;20207;-63
2024/01/12 12:47:34;;;;;;;1.95;1.80;;;;;;;;;;5018283;28;20521;-63
2024/01/12 12:50:01;;;;;;;2.15;1.63;;;;;;;;;;5017299;28;20301;-63
2024/01/12 12:52:29;;;;;;;2.00;1.83;;;;;;;;;;5018013;28;20241;-63
2024/01/12 12:54:56;;;;;;;1.85;1.75;;;;;;;;;;5017404;28;20220;-63
2024/01/12 12:57:23;;;;;;;2.10;1.65;;;;;;;;;;5017346;28;20207;-63
2024/01/12 12:59:51;;;;;;;2.38;1.88;;;;;;;;;;5017416;28;20320;-63
2024/01/12 13:02:21;;;;;;;1.95;1.70;;;;;;;;;;5016921;28;20224;-63
2024/01/12 13:04:48;;;;;;;1.60;1.50;;;;;;;;;;5017633;28;20212;-63
2024/01/12 13:07:16;;;;;;;1.65;1.55;;;;;;;;;;5016963;28;20198;-63
2024/01/12 13:09:43;;;;;;;1.88;1.58;;;;;;;;;;5017614;28;20209;-63
2024/01/12 13:12:11;;;;;;;2.00;1.60;;;;;;;;;;5017917;28;20216;-63
2024/01/12 13:14:38;;;;;;;1.80;1.70;;;;;;;;;;5017153;28;20217;-63
2024/01/12 13:17:06;;;;;;;2.35;1.77;;;;;;;;;;5015526;28;20506;-63
2024/01/12 13:19:35;;;;;;;1.63;1.52;;;;;;;;;;5017093;28;20242;-63
2024/01/12 13:22:03;;;;;;;2.35;1.60;;;;;;;;;;5017326;28;20261;-63
2024/01/12 13:24:30;;;;;;;1.73;1.60;;;;;;;;;;5017972;28;20207;-63
2024/01/12 13:26:58;;;;;;;1.95;1.70;;;;;;;;;;5017552;28;20277;-63
2024/01/12 13:29:25;;;;;;;1.70;1.45;;;;;;;;;;5017451;28;20490;-63
2024/01/12 13:31:53;;;;;;;1.80;1.70;;;;;;;;;;5018342;28;20217;-63
2024/01/12 13:34:21;;;;;;;1.92;1.48;;;;;;;;;;5017313;28;20588;-63
2024/01/12 13:36:49;;;;;;;1.70;1.60;;;;;;;;;;5017670;28;20206;-63
2024/01/12 13:39:17;;;;;;;1.48;1.38;;;;;;;;;;5017386;28;20244;-63
2024/01/12 13:41:45;;;;;;;1.67;1.58;;;;;;;;;;5017598;28;20206;-63
2024/01/12 13:44:12;;;;;;;1.75;1.60;;;;;;;;;;5017906;28;20207;-63
2024/01/12 13:46:40;;;;;;;1.70;1.60;;;;;;;;;;5017602;28;20206;-63
2024/01/12 13:49:07;;;;;;;1.70;1.50;;;;;;;;;;5017376;28;20202;-63
2024/01/12 13:51:34;;;;;;;1.70;1.58;;;;;;;;;;5017163;28;20206;-63
2024/01/12 13:54:06;;;;;;;1.67;1.50;;;;;;;;;;5017006;28;20213;-63
2024/01/12 13:56:33;;;;;;;1.65;1.55;;;;;;;;;;5017233;28;20203;-63
2024/01/12 13:59:02;;;;;;;1.40;1.30;;;;;;;;;;5016821;28;20230;-63
2024/01/12 14:01:29;;;;;;;1.50;1.38;;;;;;;;;;5017530;28;20540;-63
2024/01/12 14:03:57;;;;;;;1.60;1.50;;;;;;;;;;5016471;28;20213;-63
2024/01/12 14:06:25;;;;;;;1.77;1.67;;;;;;;;;;5017079;28;20207;-63
2024/01/12 14:08:53;;;;;;;1.67;1.50;;;;;;;;;;5016830;28;20210;-63
2024/01/12 14:11:22;;;;;;;1.50;1.40;;;;;;;;;;5016980;28;20213;-64
2024/01/12 14:13:49;;;;;;;1.42;1.33;;;;;;;;;;5017577;28;20211;-63
2024/01/12 14:16:17;;;;;;;1.40;1.30;;;;;;;;;;5017019;28;20288;-63
2024/01/12 14:18:44;;;;;;;1.27;1.17;;;;;;;;;;5015948;28;20241;-63
2024/01/12 14:21:12;;;;;;;1.63;1.42;;;;;;;;;;5015978;28;20216;-63
2024/01/12 14:23:38;;;;;;;1.38;1.27;;;;;;;;;;5016271;28;20210;-63
2024/01/12 14:26:06;;;;;;;1.75;1.50;;;;;;;;;;5016376;28;20202;-63
2024/01/12 14:28:35;;;;;;;1.60;1.50;;;;;;;;;;5015335;28;20229;-63
2024/01/12 14:31:03;;;;;;;1.42;1.33;;;;;;;;;;5016454;28;20214;-63
2024/01/12 14:33:33;;;;;;;1.75;1.65;;;;;;;;;;5016725;28;20580;-63
2024/01/12 14:36:01;;;;;;;1.33;1.23;;;;;;;;;;5016257;28;20484;-63
2024/01/12 14:38:28;;;;;;;1.50;1.40;;;;;;;;;;5015885;28;20257;-63
2024/01/12 14:40:55;;;;;;;1.60;1.50;;;;;;;;;;5016641;28;20206;-63
2024/01/12 14:43:23;;;;;;;1.48;1.35;;;;;;;;;;5016520;28;20214;-63
2024/01/12 14:45:52;;;;;;;1.50;1.40;;;;;;;;;;5016850;28;20206;-63
2024/01/12 14:48:19;;;;;;;1.30;1.20;;;;;;;;;;5016445;28;20198;-63